sensor_id;sensor_type;location;lat;lon;timestamp;pressure;altitude;pressure_sealevel;temperature
73894;BMP280;62699;50.534;12.784;2022-11-15T00:04:16;96347.47;;;2.53
73894;BMP280;62699;50.534;12.784;2022-11-15T00:09:16;96348.31;;;2.50
73894;BMP280;62699;50.534;12.784;2022-11-15T00:14:40;96348.31;;;2.50
73894;BMP280;62699;50.534;12.784;2022-11-15T00:19:41;96345.16;;;2.43
73894;BMP280;62699;50.534;12.784;2022-11-15T00:24:41;96335.50;;;2.36
73894;BMP280;62699;50.534;12.784;2022-11-15T00:29:42;96340.34;;;2.29
73894;BMP280;62699;50.534;12.784;2022-11-15T00:34:43;96346.41;;;2.29
73894;BMP280;62699;50.534;12.784;2022-11-15T00:39:43;96341.34;;;2.22
73894;BMP280;62699;50.534;12.784;2022-11-15T00:44:43;96341.34;;;2.22
73894;BMP280;62699;50.534;12.784;2022-11-15T00:49:44;96325.63;;;2.15
73894;BMP280;62699;50.534;12.784;2022-11-15T00:54:44;96332.00;;;2.17
73894;BMP280;62699;50.534;12.784;2022-11-15T00:59:44;96320.88;;;2.10
73894;BMP280;62699;50.534;12.784;2022-11-15T01:04:44;96308.34;;;2.10
73894;BMP280;62699;50.534;12.784;2022-11-15T01:09:45;96309.03;;;2.02
73894;BMP280;62699;50.534;12.784;2022-11-15T01:14:45;96305.00;;;1.97
73894;BMP280;62699;50.534;12.784;2022-11-15T01:19:45;96308.06;;;1.96
73894;BMP280;62699;50.534;12.784;2022-11-15T01:24:46;96301.72;;;1.93
73894;BMP280;62699;50.534;12.784;2022-11-15T01:29:46;96294.28;;;1.88
73894;BMP280;62699;50.534;12.784;2022-11-15T01:34:46;96288.09;;;1.82
73894;BMP280;62699;50.534;12.784;2022-11-15T01:39:47;96288.50;;;1.80
73894;BMP280;62699;50.534;12.784;2022-11-15T01:44:50;96272.28;;;1.78
73894;BMP280;62699;50.534;12.784;2022-11-15T01:50:04;96273.75;;;1.79
73894;BMP280;62699;50.534;12.784;2022-11-15T01:55:15;96274.00;;;1.72
73894;BMP280;62699;50.534;12.784;2022-11-15T02:00:16;96274.28;;;1.74
73894;BMP280;62699;50.534;12.784;2022-11-15T02:05:17;96266.47;;;1.71
73894;BMP280;62699;50.534;12.784;2022-11-15T02:10:20;96267.31;;;1.68
73894;BMP280;62699;50.534;12.784;2022-11-15T02:15:21;96272.31;;;1.66
73894;BMP280;62699;50.534;12.784;2022-11-15T02:36:15;96257.63;;;1.74
73894;BMP280;62699;50.534;12.784;2022-11-15T02:41:28;96255.09;;;1.70
73894;BMP280;62699;50.534;12.784;2022-11-15T02:46:40;96261.81;;;1.62
73894;BMP280;62699;50.534;12.784;2022-11-15T02:52:00;96266.50;;;1.58
73894;BMP280;62699;50.534;12.784;2022-11-15T02:57:04;96262.03;;;1.55
73894;BMP280;62699;50.534;12.784;2022-11-15T03:07:39;96254.31;;;1.48
73894;BMP280;62699;50.534;12.784;2022-11-15T03:12:48;96242.94;;;1.60
73894;BMP280;62699;50.534;12.784;2022-11-15T03:17:55;96235.91;;;1.66
73894;BMP280;62699;50.534;12.784;2022-11-15T03:23:08;96238.91;;;1.56
73894;BMP280;62699;50.534;12.784;2022-11-15T03:28:10;96239.97;;;1.45
73894;BMP280;62699;50.534;12.784;2022-11-15T03:33:12;96226.13;;;1.41
73894;BMP280;62699;50.534;12.784;2022-11-15T03:38:24;96218.91;;;1.42
73894;BMP280;62699;50.534;12.784;2022-11-15T03:43:43;96221.41;;;1.45
73894;BMP280;62699;50.534;12.784;2022-11-15T03:48:50;96215.06;;;1.43
73894;BMP280;62699;50.534;12.784;2022-11-15T03:53:52;96210.63;;;1.40
73894;BMP280;62699;50.534;12.784;2022-11-15T03:58:52;96202.91;;;1.33
73894;BMP280;62699;50.534;12.784;2022-11-15T04:03:52;96211.75;;;1.30
73894;BMP280;62699;50.534;12.784;2022-11-15T04:08:52;96217.88;;;1.27
73894;BMP280;62699;50.534;12.784;2022-11-15T04:13:53;96212.41;;;1.21
73894;BMP280;62699;50.534;12.784;2022-11-15T04:18:53;96218.53;;;1.31
73894;BMP280;62699;50.534;12.784;2022-11-15T04:24:12;96221.47;;;1.33
73894;BMP280;62699;50.534;12.784;2022-11-15T04:29:12;96211.00;;;1.29
73894;BMP280;62699;50.534;12.784;2022-11-15T04:34:32;96209.28;;;1.23
73894;BMP280;62699;50.534;12.784;2022-11-15T04:39:32;96201.66;;;1.25
73894;BMP280;62699;50.534;12.784;2022-11-15T04:44:32;96200.16;;;1.24
73894;BMP280;62699;50.534;12.784;2022-11-15T04:49:33;96186.81;;;1.27
73894;BMP280;62699;50.534;12.784;2022-11-15T04:54:33;96181.75;;;1.20
73894;BMP280;62699;50.534;12.784;2022-11-15T04:59:33;96188.75;;;1.14
73894;BMP280;62699;50.534;12.784;2022-11-15T05:04:34;96175.41;;;1.05
73894;BMP280;62699;50.534;12.784;2022-11-15T05:09:34;96187.91;;;1.04
73894;BMP280;62699;50.534;12.784;2022-11-15T05:14:34;96188.03;;;1.01
73894;BMP280;62699;50.534;12.784;2022-11-15T05:19:34;96177.84;;;0.99
73894;BMP280;62699;50.534;12.784;2022-11-15T05:24:35;96175.41;;;1.05
73894;BMP280;62699;50.534;12.784;2022-11-15T05:29:35;96181.75;;;1.07
73894;BMP280;62699;50.534;12.784;2022-11-15T05:34:35;96180.91;;;1.10
73894;BMP280;62699;50.534;12.784;2022-11-15T05:39:36;96177.72;;;1.03
73894;BMP280;62699;50.534;12.784;2022-11-15T05:44:36;96173.41;;;0.96
73894;BMP280;62699;50.534;12.784;2022-11-15T05:49:39;96165.03;;;0.98
73894;BMP280;62699;50.534;12.784;2022-11-15T05:54:40;96178.38;;;0.94
73894;BMP280;62699;50.534;12.784;2022-11-15T05:59:42;96181.16;;;0.91
73894;BMP280;62699;50.534;12.784;2022-11-15T06:04:43;96175.63;;;0.85
73894;BMP280;62699;50.534;12.784;2022-11-15T06:09:43;96176.81;;;0.84
73894;BMP280;62699;50.534;12.784;2022-11-15T06:14:44;96190.78;;;0.97
73894;BMP280;62699;50.534;12.784;2022-11-15T06:19:44;96190.69;;;1.01
73894;BMP280;62699;50.534;12.784;2022-11-15T06:24:44;96190.03;;;0.97
73894;BMP280;62699;50.534;12.784;2022-11-15T06:29:45;96196.09;;;0.97
73894;BMP280;62699;50.534;12.784;2022-11-15T06:34:45;96190.78;;;0.97
73894;BMP280;62699;50.534;12.784;2022-11-15T06:39:45;96196.59;;;1.05
73894;BMP280;62699;50.534;12.784;2022-11-15T06:44:46;96196.50;;;1.08
73894;BMP280;62699;50.534;12.784;2022-11-15T06:49:46;96201.88;;;1.18
73894;BMP280;62699;50.534;12.784;2022-11-15T06:54:46;96209.19;;;1.26
73894;BMP280;62699;50.534;12.784;2022-11-15T06:59:47;96209.66;;;1.34
73894;BMP280;62699;50.534;12.784;2022-11-15T07:04:47;96212.13;;;1.41
73894;BMP280;62699;50.534;12.784;2022-11-15T07:09:47;96213.66;;;1.51
73894;BMP280;62699;50.534;12.784;2022-11-15T07:14:48;96213.53;;;1.55
73894;BMP280;62699;50.534;12.784;2022-11-15T07:19:51;96203.00;;;1.64
73894;BMP280;62699;50.534;12.784;2022-11-15T07:24:51;96199.56;;;1.76
73894;BMP280;62699;50.534;12.784;2022-11-15T07:29:52;96208.84;;;3.50
73894;BMP280;62699;50.534;12.784;2022-11-15T07:34:52;96212.94;;;6.45
73894;BMP280;62699;50.534;12.784;2022-11-15T07:39:52;96213.13;;;8.63
73894;BMP280;62699;50.534;12.784;2022-11-15T07:44:53;96211.75;;;8.84
73894;BMP280;62699;50.534;12.784;2022-11-15T07:49:58;96202.97;;;10.78
73894;BMP280;62699;50.534;12.784;2022-11-15T07:54:58;96205.38;;;11.69
73894;BMP280;62699;50.534;12.784;2022-11-15T07:59:59;96202.84;;;11.47
73894;BMP280;62699;50.534;12.784;2022-11-15T08:04:59;96198.53;;;11.68
73894;BMP280;62699;50.534;12.784;2022-11-15T08:10:00;96191.75;;;12.16
73894;BMP280;62699;50.534;12.784;2022-11-15T08:15:04;96191.22;;;11.63
73894;BMP280;62699;50.534;12.784;2022-11-15T08:20:05;96187.09;;;11.86
73894;BMP280;62699;50.534;12.784;2022-11-15T08:25:05;96184.72;;;11.77
73894;BMP280;62699;50.534;12.784;2022-11-15T08:30:06;96184.94;;;11.79
73894;BMP280;62699;50.534;12.784;2022-11-15T08:35:07;96179.91;;;11.29
73894;BMP280;62699;50.534;12.784;2022-11-15T08:40:08;96172.69;;;10.61
73894;BMP280;62699;50.534;12.784;2022-11-15T08:45:08;96164.75;;;10.00
73894;BMP280;62699;50.534;12.784;2022-11-15T08:50:09;96158.94;;;9.51
73894;BMP280;62699;50.534;12.784;2022-11-15T08:55:09;96161.06;;;9.03
73894;BMP280;62699;50.534;12.784;2022-11-15T09:00:10;96145.94;;;9.16
73894;BMP280;62699;50.534;12.784;2022-11-15T09:05:12;96140.09;;;9.23
73894;BMP280;62699;50.534;12.784;2022-11-15T09:10:12;96140.34;;;9.48
73894;BMP280;62699;50.534;12.784;2022-11-15T09:15:12;96143.03;;;9.92
73894;BMP280;62699;50.534;12.784;2022-11-15T09:20:13;96139.59;;;10.14
73894;BMP280;62699;50.534;12.784;2022-11-15T09:25:13;96135.28;;;10.52
73894;BMP280;62699;50.534;12.784;2022-11-15T09:30:14;96134.56;;;10.57
73894;BMP280;62699;50.534;12.784;2022-11-15T09:35:15;96125.84;;;10.86
73894;BMP280;62699;50.534;12.784;2022-11-15T09:40:24;96114.69;;;11.07
73894;BMP280;62699;50.534;12.784;2022-11-15T09:51:04;96103.19;;;11.66
73894;BMP280;62699;50.534;12.784;2022-11-15T09:56:20;96099.97;;;11.91
73894;BMP280;62699;50.534;12.784;2022-11-15T10:01:52;96094.84;;;12.12
73894;BMP280;62699;50.534;12.784;2022-11-15T10:07:10;96081.38;;;12.31
73894;BMP280;62699;50.534;12.784;2022-11-15T10:12:13;96070.06;;;12.51
73894;BMP280;62699;50.534;12.784;2022-11-15T10:17:23;96057.47;;;12.72
73894;BMP280;62699;50.534;12.784;2022-11-15T10:22:56;96056.75;;;12.91
73894;BMP280;62699;50.534;12.784;2022-11-15T10:28:04;96044.50;;;13.03
73894;BMP280;62699;50.534;12.784;2022-11-15T10:38:30;96037.59;;;13.33
73894;BMP280;62699;50.534;12.784;2022-11-15T10:43:30;96027.22;;;13.51
73894;BMP280;62699;50.534;12.784;2022-11-15T10:48:30;96021.41;;;13.60
73894;BMP280;62699;50.534;12.784;2022-11-15T10:53:43;95997.56;;;13.71
73894;BMP280;62699;50.534;12.784;2022-11-15T10:58:51;95993.00;;;13.79
73894;BMP280;62699;50.534;12.784;2022-11-15T11:04:07;95997.31;;;13.82
73894;BMP280;62699;50.534;12.784;2022-11-15T11:14:29;95983.25;;;14.10
73894;BMP280;62699;50.534;12.784;2022-11-15T11:25:08;95970.81;;;14.15
73894;BMP280;62699;50.534;12.784;2022-11-15T11:30:21;95959.34;;;14.22
73894;BMP280;62699;50.534;12.784;2022-11-15T11:40:48;95950.03;;;14.10
73894;BMP280;62699;50.534;12.784;2022-11-15T11:51:05;95932.25;;;14.01
73894;BMP280;62699;50.534;12.784;2022-11-15T12:02:02;95922.03;;;13.94
73894;BMP280;62699;50.534;12.784;2022-11-15T12:07:36;95924.38;;;13.90
73894;BMP280;62699;50.534;12.784;2022-11-15T12:12:48;95918.06;;;13.74
73894;BMP280;62699;50.534;12.784;2022-11-15T12:17:49;95907.72;;;13.86
73894;BMP280;62699;50.534;12.784;2022-11-15T12:33:49;95890.44;;;13.55
73894;BMP280;62699;50.534;12.784;2022-11-15T12:43:55;95879.22;;;13.12
73894;BMP280;62699;50.534;12.784;2022-11-15T12:49:02;95880.81;;;13.07
73894;BMP280;62699;50.534;12.784;2022-11-15T13:00:45;95864.38;;;12.79
73894;BMP280;62699;50.534;12.784;2022-11-15T13:10:43;95859.19;;;12.68
73894;BMP280;62699;50.534;12.784;2022-11-15T13:20:54;95861.38;;;12.56
73894;BMP280;62699;50.534;12.784;2022-11-15T13:26:08;95849.56;;;12.40
73894;BMP280;62699;50.534;12.784;2022-11-15T13:36:26;95859.13;;;12.42
73894;BMP280;62699;50.534;12.784;2022-11-15T13:41:31;95860.22;;;12.20
73894;BMP280;62699;50.534;12.784;2022-11-15T13:46:33;95859.34;;;11.99
73894;BMP280;62699;50.534;12.784;2022-11-15T13:51:38;95851.91;;;11.86
73894;BMP280;62699;50.534;12.784;2022-11-15T13:56:43;95861.47;;;11.68
73894;BMP280;62699;50.534;12.784;2022-11-15T14:01:44;95854.41;;;11.46
73894;BMP280;62699;50.534;12.784;2022-11-15T14:06:47;95852.19;;;11.26
73894;BMP280;62699;50.534;12.784;2022-11-15T14:11:53;95853.59;;;11.09
73894;BMP280;62699;50.534;12.784;2022-11-15T14:16:57;95846.72;;;10.89
73894;BMP280;62699;50.534;12.784;2022-11-15T14:22:08;95845.91;;;10.70
73894;BMP280;62699;50.534;12.784;2022-11-15T14:27:27;95838.00;;;10.53
73894;BMP280;62699;50.534;12.784;2022-11-15T14:32:39;95830.63;;;10.29
73894;BMP280;62699;50.534;12.784;2022-11-15T14:37:40;95836.91;;;10.07
73894;BMP280;62699;50.534;12.784;2022-11-15T14:42:42;95829.75;;;9.80
73894;BMP280;62699;50.534;12.784;2022-11-15T14:47:42;95818.84;;;9.56
73894;BMP280;62699;50.534;12.784;2022-11-15T14:52:43;95816.06;;;9.32
73894;BMP280;62699;50.534;12.784;2022-11-15T14:57:44;95814.91;;;9.05
73894;BMP280;62699;50.534;12.784;2022-11-15T15:02:46;95808.38;;;8.89
73894;BMP280;62699;50.534;12.784;2022-11-15T15:07:47;95808.66;;;8.69
73894;BMP280;62699;50.534;12.784;2022-11-15T15:12:48;95794.53;;;8.52
73894;BMP280;62699;50.534;12.784;2022-11-15T15:17:49;95790.91;;;8.32
73894;BMP280;62699;50.534;12.784;2022-11-15T15:22:49;95787.97;;;8.14
73894;BMP280;62699;50.534;12.784;2022-11-15T15:27:49;95786.25;;;7.94
73894;BMP280;62699;50.534;12.784;2022-11-15T15:32:51;95777.97;;;7.81
73894;BMP280;62699;50.534;12.784;2022-11-15T15:37:51;95785.75;;;7.90
73894;BMP280;62699;50.534;12.784;2022-11-15T15:42:52;95775.75;;;7.74
73894;BMP280;62699;50.534;12.784;2022-11-15T15:47:52;95770.88;;;7.78
73894;BMP280;62699;50.534;12.784;2022-11-15T15:52:55;95774.28;;;7.78
73894;BMP280;62699;50.534;12.784;2022-11-15T15:57:56;95772.34;;;7.79
73894;BMP280;62699;50.534;12.784;2022-11-15T16:02:56;95771.13;;;7.80
73894;BMP280;62699;50.534;12.784;2022-11-15T16:07:56;95760.41;;;7.80
73894;BMP280;62699;50.534;12.784;2022-11-15T16:12:57;95763.59;;;7.89
73894;BMP280;62699;50.534;12.784;2022-11-15T16:18:00;95759.66;;;7.74
73894;BMP280;62699;50.534;12.784;2022-11-15T16:23:02;95754.09;;;7.72
73894;BMP280;62699;50.534;12.784;2022-11-15T16:28:03;95753.06;;;7.41
73894;BMP280;62699;50.534;12.784;2022-11-15T16:33:03;95740.81;;;7.18
73894;BMP280;62699;50.534;12.784;2022-11-15T16:38:03;95758.16;;;6.86
73894;BMP280;62699;50.534;12.784;2022-11-15T16:43:04;95755.31;;;6.58
73894;BMP280;62699;50.534;12.784;2022-11-15T16:48:05;95751.31;;;6.42
73894;BMP280;62699;50.534;12.784;2022-11-15T16:53:06;95765.13;;;6.35
73894;BMP280;62699;50.534;12.784;2022-11-15T16:58:08;95758.97;;;6.23
73894;BMP280;62699;50.534;12.784;2022-11-15T17:03:08;95756.47;;;6.14
73894;BMP280;62699;50.534;12.784;2022-11-15T17:08:09;95750.16;;;6.17
73894;BMP280;62699;50.534;12.784;2022-11-15T17:13:10;95752.28;;;6.08
73894;BMP280;62699;50.534;12.784;2022-11-15T17:18:12;95746.41;;;6.04
73894;BMP280;62699;50.534;12.784;2022-11-15T17:23:14;95743.81;;;5.83
73894;BMP280;62699;50.534;12.784;2022-11-15T17:28:14;95748.53;;;5.68
73894;BMP280;62699;50.534;12.784;2022-11-15T17:33:15;95738.94;;;5.56
73894;BMP280;62699;50.534;12.784;2022-11-15T17:38:15;95745.88;;;5.48
73894;BMP280;62699;50.534;12.784;2022-11-15T17:43:15;95745.22;;;5.33
73894;BMP280;62699;50.534;12.784;2022-11-15T17:48:16;95740.56;;;5.28
73894;BMP280;62699;50.534;12.784;2022-11-15T17:53:17;95742.38;;;5.16
73894;BMP280;62699;50.534;12.784;2022-11-15T17:58:18;95733.78;;;5.07
73894;BMP280;62699;50.534;12.784;2022-11-15T18:03:18;95727.16;;;5.02
73894;BMP280;62699;50.534;12.784;2022-11-15T18:08:18;95730.56;;;5.02
73894;BMP280;62699;50.534;12.784;2022-11-15T18:13:20;95728.28;;;4.95
73894;BMP280;62699;50.534;12.784;2022-11-15T18:18:20;95729.09;;;5.01
73894;BMP280;62699;50.534;12.784;2022-11-15T18:23:21;95724.50;;;5.02
73894;BMP280;62699;50.534;12.784;2022-11-15T18:28:21;95725.16;;;4.97
73894;BMP280;62699;50.534;12.784;2022-11-15T18:33:21;95724.94;;;5.00
73894;BMP280;62699;50.534;12.784;2022-11-15T18:38:22;95713.09;;;5.01
73894;BMP280;62699;50.534;12.784;2022-11-15T18:43:22;95717.31;;;4.88
73894;BMP280;62699;50.534;12.784;2022-11-15T18:48:22;95705.34;;;4.83
73894;BMP280;62699;50.534;12.784;2022-11-15T18:53:23;95704.72;;;4.74
73894;BMP280;62699;50.534;12.784;2022-11-15T18:58:23;95700.00;;;4.63
73894;BMP280;62699;50.534;12.784;2022-11-15T19:03:24;95700.28;;;4.50
73894;BMP280;62699;50.534;12.784;2022-11-15T19:08:24;95691.13;;;4.37
73894;BMP280;62699;50.534;12.784;2022-11-15T19:13:24;95691.50;;;4.30
73894;BMP280;62699;50.534;12.784;2022-11-15T19:18:25;95682.53;;;4.27
73894;BMP280;62699;50.534;12.784;2022-11-15T19:23:26;95680.91;;;4.15
73894;BMP280;62699;50.534;12.784;2022-11-15T19:28:27;95680.88;;;4.00
73894;BMP280;62699;50.534;12.784;2022-11-15T19:33:27;95670.81;;;3.90
73894;BMP280;62699;50.534;12.784;2022-11-15T19:38:32;95668.97;;;3.81
73894;BMP280;62699;50.534;12.784;2022-11-15T19:43:32;95662.00;;;3.69
73894;BMP280;62699;50.534;12.784;2022-11-15T19:48:33;95656.47;;;3.58
73894;BMP280;62699;50.534;12.784;2022-11-15T19:53:33;95650.31;;;3.52
73894;BMP280;62699;50.534;12.784;2022-11-15T19:58:34;95652.06;;;3.40
73894;BMP280;62699;50.534;12.784;2022-11-15T20:03:34;95642.69;;;3.30
73894;BMP280;62699;50.534;12.784;2022-11-15T20:08:35;95639.84;;;3.19
73894;BMP280;62699;50.534;12.784;2022-11-15T20:13:36;95646.53;;;3.14
73894;BMP280;62699;50.534;12.784;2022-11-15T20:18:36;95632.38;;;3.08
73894;BMP280;62699;50.534;12.784;2022-11-15T20:23:37;95634.00;;;3.05
73894;BMP280;62699;50.534;12.784;2022-11-15T20:28:38;95622.44;;;2.94
73894;BMP280;62699;50.534;12.784;2022-11-15T20:33:39;95626.47;;;2.89
73894;BMP280;62699;50.534;12.784;2022-11-15T20:38:39;95616.91;;;2.83
73894;BMP280;62699;50.534;12.784;2022-11-15T20:43:40;95631.41;;;2.82
73894;BMP280;62699;50.534;12.784;2022-11-15T20:48:42;95622.56;;;2.76
73894;BMP280;62699;50.534;12.784;2022-11-15T20:53:49;95616.41;;;2.70
73894;BMP280;62699;50.534;12.784;2022-11-15T20:58:49;95607.84;;;2.65
73894;BMP280;62699;50.534;12.784;2022-11-15T21:03:53;95605.13;;;2.60
73894;BMP280;62699;50.534;12.784;2022-11-15T21:08:54;95594.34;;;2.54
73894;BMP280;62699;50.534;12.784;2022-11-15T21:14:13;95596.00;;;2.52
73894;BMP280;62699;50.534;12.784;2022-11-15T21:19:13;95593.50;;;2.48
73894;BMP280;62699;50.534;12.784;2022-11-15T21:24:14;95583.50;;;2.43
73894;BMP280;62699;50.534;12.784;2022-11-15T21:29:14;95586.78;;;2.38
73894;BMP280;62699;50.534;12.784;2022-11-15T21:34:17;95575.31;;;2.32
73894;BMP280;62699;50.534;12.784;2022-11-15T21:39:17;95570.34;;;2.25
73894;BMP280;62699;50.534;12.784;2022-11-15T21:44:18;95564.47;;;2.21
73894;BMP280;62699;50.534;12.784;2022-11-15T21:49:31;95560.63;;;2.22
73894;BMP280;62699;50.534;12.784;2022-11-15T21:54:31;95552.38;;;2.20
73894;BMP280;62699;50.534;12.784;2022-11-15T21:59:32;95542.81;;;2.13
73894;BMP280;62699;50.534;12.784;2022-11-15T22:04:32;95540.03;;;2.08
73894;BMP280;62699;50.534;12.784;2022-11-15T22:09:39;95528.84;;;2.04
73894;BMP280;62699;50.534;12.784;2022-11-15T22:14:39;95525.00;;;2.05
73894;BMP280;62699;50.534;12.784;2022-11-15T22:19:39;95507.59;;;2.04
73894;BMP280;62699;50.534;12.784;2022-11-15T22:24:40;95497.56;;;2.08
73894;BMP280;62699;50.534;12.784;2022-11-15T22:29:40;95485.03;;;2.08
73894;BMP280;62699;50.534;12.784;2022-11-15T22:34:41;95486.34;;;2.13
73894;BMP280;62699;50.534;12.784;2022-11-15T22:39:41;95484.56;;;2.10
73894;BMP280;62699;50.534;12.784;2022-11-15T22:44:41;95486.16;;;2.16
73894;BMP280;62699;50.534;12.784;2022-11-15T22:49:42;95469.50;;;2.16
73894;BMP280;62699;50.534;12.784;2022-11-15T22:54:43;95462.25;;;2.16
73894;BMP280;62699;50.534;12.784;2022-11-15T22:59:44;95465.09;;;2.13
73894;BMP280;62699;50.534;12.784;2022-11-15T23:04:44;95453.63;;;2.07
73894;BMP280;62699;50.534;12.784;2022-11-15T23:09:45;95454.50;;;2.04
73894;BMP280;62699;50.534;12.784;2022-11-15T23:14:45;95434.50;;;2.03
73894;BMP280;62699;50.534;12.784;2022-11-15T23:19:46;95428.91;;;2.01
73894;BMP280;62699;50.534;12.784;2022-11-15T23:24:46;95429.19;;;2.03
73894;BMP280;62699;50.534;12.784;2022-11-15T23:29:47;95430.06;;;2.00
73894;BMP280;62699;50.534;12.784;2022-11-15T23:35:06;95426.34;;;2.06
73894;BMP280;62699;50.534;12.784;2022-11-15T23:40:07;95427.97;;;2.04
73894;BMP280;62699;50.534;12.784;2022-11-15T23:45:08;95420.63;;;1.99
73894;BMP280;62699;50.534;12.784;2022-11-15T23:50:09;95411.84;;;1.93
73894;BMP280;62699;50.534;12.784;2022-11-15T23:55:09;95403.88;;;1.93
